createdAt,value
2019-05-02T00:00:56.140Z,99.90
2019-05-02T00:03:28.643Z,99.90
2019-05-02T00:05:58.590Z,99.90
2019-05-02T00:08:32.780Z,99.90
2019-05-02T00:11:00.566Z,99.90
2019-05-02T00:13:30.434Z,99.90
2019-05-02T00:16:00.449Z,99.90
2019-05-02T00:18:31.967Z,99.90
2019-05-02T00:21:03.275Z,99.90
2019-05-02T00:23:33.256Z,99.90
2019-05-02T00:26:05.026Z,99.90
2019-05-02T00:28:34.898Z,99.90
2019-05-02T00:31:07.499Z,99.90
2019-05-02T00:33:36.785Z,99.90
2019-05-02T00:36:06.542Z,99.90
2019-05-02T00:38:38.344Z,99.90
2019-05-02T00:41:07.942Z,99.90
2019-05-02T00:43:37.746Z,99.90
2019-05-02T00:46:07.616Z,99.90
2019-05-02T00:48:42.464Z,99.90
2019-05-02T00:51:12.302Z,99.90
2019-05-02T00:53:44.398Z,99.90
2019-05-02T00:56:13.553Z,99.90
2019-05-02T00:58:43.347Z,99.90
2019-05-02T01:01:29.412Z,99.90
2019-05-02T01:04:06.270Z,99.90
2019-05-02T01:06:36.025Z,99.90
2019-05-02T01:09:11.001Z,99.90
2019-05-02T01:11:39.076Z,99.90
2019-05-02T01:14:08.894Z,99.90
2019-05-02T01:16:38.639Z,99.90
2019-05-02T01:19:12.218Z,99.90
2019-05-02T01:21:40.174Z,99.90
2019-05-02T01:24:10.051Z,99.90
2019-05-02T01:26:43.842Z,99.90
2019-05-02T01:29:24.997Z,99.90
2019-05-02T01:32:01.428Z,99.90
2019-05-02T01:34:38.323Z,99.90
2019-05-02T01:37:20.465Z,99.90
2019-05-02T01:39:44.726Z,99.90
2019-05-02T01:42:14.483Z,99.90
2019-05-02T01:44:44.236Z,99.90
2019-05-02T01:47:13.992Z,99.90
2019-05-02T01:49:43.782Z,99.90
2019-05-02T01:52:13.588Z,99.90
2019-05-02T01:54:45.831Z,99.90
2019-05-02T01:57:14.804Z,99.90
2019-05-02T01:59:46.462Z,99.90
2019-05-02T02:02:16.247Z,99.90
2019-05-02T02:04:46.054Z,99.90
2019-05-02T02:07:20.024Z,99.90
2019-05-02T02:09:49.232Z,99.90
2019-05-02T02:12:18.981Z,99.90
2019-05-02T02:14:53.458Z,99.90
2019-05-02T02:17:20.313Z,99.90
2019-05-02T02:19:54.665Z,99.90
2019-05-02T02:22:39.244Z,99.90
2019-05-02T02:25:25.099Z,99.90
2019-05-02T02:27:59.532Z,99.90
2019-05-02T02:30:26.747Z,99.90
2019-05-02T02:33:00.402Z,99.90
2019-05-02T02:35:28.194Z,99.90
2019-05-02T02:37:58.384Z,99.90
2019-05-02T02:40:33.584Z,99.90
2019-05-02T02:43:12.645Z,99.90
2019-05-02T02:45:51.782Z,99.90
2019-05-02T02:48:20.068Z,99.90
2019-05-02T02:50:49.826Z,99.90
2019-05-02T02:53:30.131Z,99.90
2019-05-02T02:56:03.913Z,99.90
2019-05-02T02:58:44.080Z,99.90
2019-05-02T03:01:05.053Z,99.90
2019-05-02T03:03:35.574Z,99.90
2019-05-02T03:06:08.035Z,99.90
2019-05-02T03:08:45.058Z,99.90
2019-05-02T03:11:10.793Z,99.90
2019-05-02T03:13:52.847Z,99.90
2019-05-02T03:16:21.155Z,99.90
2019-05-02T03:18:50.946Z,99.90
2019-05-02T03:21:22.547Z,99.90
2019-05-02T03:24:01.698Z,99.90
2019-05-02T03:26:24.167Z,99.90
2019-05-02T03:28:58.385Z,99.90
2019-05-02T03:31:30.172Z,99.90
2019-05-02T03:34:00.836Z,99.90
2019-05-02T03:36:35.746Z,99.90
2019-05-02T03:39:13.283Z,99.90
2019-05-02T03:41:34.674Z,99.90
2019-05-02T03:44:11.223Z,99.90
2019-05-02T03:46:35.933Z,99.90
2019-05-02T03:49:09.278Z,99.90
2019-05-02T03:51:37.245Z,99.90
2019-05-02T03:54:10.211Z,99.90
2019-05-02T03:56:38.554Z,99.90
2019-05-02T03:59:08.381Z,99.90
2019-05-02T04:01:41.187Z,99.90
2019-05-02T04:04:22.757Z,99.90
2019-05-02T04:06:54.980Z,99.90
2019-05-02T04:09:42.167Z,99.90
2019-05-02T04:12:15.516Z,99.90
2019-05-02T04:14:39.722Z,99.90
2019-05-02T04:17:10.376Z,99.90
2019-05-02T04:19:40.583Z,99.90
2019-05-02T04:22:12.155Z,99.90
2019-05-02T04:24:47.970Z,99.90
2019-05-02T04:27:14.062Z,99.90
2019-05-02T04:29:43.927Z,99.90
2019-05-02T04:32:14.524Z,99.90
2019-05-02T04:34:48.850Z,99.90
2019-05-02T04:37:16.188Z,99.90
2019-05-02T04:39:48.813Z,99.90
2019-05-02T04:42:22.081Z,99.90
2019-05-02T04:45:12.891Z,99.90
2019-05-02T04:47:21.950Z,99.90
2019-05-02T04:49:52.309Z,99.90
2019-05-02T04:52:22.232Z,99.90
2019-05-02T04:54:52.053Z,99.90
2019-05-02T04:57:29.236Z,99.90
2019-05-02T05:00:05.074Z,99.90
2019-05-02T05:02:34.096Z,99.90
2019-05-02T05:04:58.206Z,99.90
2019-05-02T05:07:31.170Z,99.90
2019-05-02T05:10:03.018Z,99.90
2019-05-02T05:12:42.577Z,99.90
2019-05-02T05:15:13.394Z,99.90
2019-05-02T05:17:43.931Z,99.90
2019-05-02T05:20:25.032Z,99.90
2019-05-02T05:22:54.926Z,99.90
2019-05-02T05:25:30.586Z,99.90
2019-05-02T05:28:05.601Z,99.90
2019-05-02T05:30:31.952Z,99.90
2019-05-02T05:33:01.796Z,99.90
2019-05-02T05:35:31.582Z,99.90
2019-05-02T05:38:01.427Z,99.90
2019-05-02T05:40:33.172Z,99.90
2019-05-02T05:43:14.174Z,99.90
2019-05-02T05:45:47.787Z,99.90
2019-05-02T05:48:05.961Z,99.90
2019-05-02T05:50:37.663Z,99.90
2019-05-02T05:53:07.973Z,99.90
2019-05-02T05:55:38.386Z,99.90
2019-05-02T05:58:15.246Z,99.90
2019-05-02T06:00:40.057Z,99.90
2019-05-02T06:03:14.149Z,99.90
2019-05-02T06:05:43.284Z,99.90
2019-05-02T06:08:13.940Z,99.90
2019-05-02T06:10:45.242Z,99.90
2019-05-02T06:13:15.176Z,99.90
2019-05-02T06:15:46.296Z,99.90
2019-05-02T06:18:16.196Z,99.90
2019-05-02T06:20:46.426Z,99.90
2019-05-02T06:23:16.336Z,99.90
2019-05-02T06:25:46.190Z,99.90
2019-05-02T06:28:16.026Z,99.90
2019-05-02T06:30:45.890Z,99.90
2019-05-02T06:33:15.648Z,99.90
2019-05-02T06:35:45.624Z,99.90
2019-05-02T06:38:15.491Z,99.90
2019-05-02T06:40:46.642Z,99.90
2019-05-02T06:43:16.738Z,99.90
2019-05-02T06:45:46.597Z,99.90
2019-05-02T06:48:18.994Z,99.90
2019-05-02T06:50:49.062Z,99.90
2019-05-02T06:53:25.780Z,99.90
2019-05-02T06:55:55.647Z,99.90
2019-05-02T06:58:25.513Z,99.90
2019-05-02T07:00:58.096Z,99.90
2019-05-02T07:03:27.703Z,99.90
2019-05-02T07:05:58.651Z,99.90
2019-05-02T07:08:29.314Z,99.90
2019-05-02T07:11:01.235Z,99.90
2019-05-02T07:13:30.774Z,99.90
2019-05-02T07:16:10.594Z,99.90
2019-05-02T07:18:49.618Z,99.90
2019-05-02T07:21:23.469Z,99.90
2019-05-02T07:23:53.504Z,99.90
2019-05-02T07:26:23.287Z,99.90
2019-05-02T07:28:53.374Z,99.90
2019-05-02T07:31:23.221Z,99.90
2019-05-02T07:33:53.182Z,99.90
2019-05-02T07:36:22.962Z,99.90
2019-05-02T07:38:57.518Z,99.90
2019-05-02T07:41:29.020Z,99.90
2019-05-02T07:43:56.219Z,99.90
2019-05-02T07:46:27.429Z,99.90
2019-05-02T07:48:57.196Z,99.90
2019-05-02T07:51:26.990Z,99.90
2019-05-02T07:53:56.906Z,99.90
2019-05-02T07:56:26.796Z,99.90
2019-05-02T07:58:56.633Z,99.90
2019-05-02T08:01:26.500Z,99.90
2019-05-02T08:04:02.777Z,99.90
2019-05-02T08:06:35.378Z,99.90
2019-05-02T08:09:01.625Z,99.90
2019-05-02T08:11:37.090Z,99.90
2019-05-02T08:14:04.477Z,99.90
2019-05-02T08:16:34.279Z,99.90
2019-05-02T08:19:05.371Z,99.90
2019-05-02T08:21:36.478Z,99.90
2019-05-02T08:24:06.265Z,99.90
2019-05-02T08:27:13.479Z,99.90
2019-05-02T08:29:43.461Z,99.90
2019-05-02T08:32:14.147Z,99.90
2019-05-02T08:34:46.226Z,99.90
2019-05-02T08:37:15.495Z,99.90
2019-05-02T08:39:45.305Z,99.90
2019-05-02T08:42:16.709Z,99.90
2019-05-02T08:44:51.133Z,99.90
2019-05-02T08:47:19.314Z,99.90
2019-05-02T08:49:54.353Z,99.90
2019-05-02T08:52:20.861Z,99.90
2019-05-02T08:54:50.772Z,99.90
2019-05-02T08:57:23.507Z,99.90
2019-05-02T08:59:55.458Z,99.90
2019-05-02T09:02:25.912Z,99.90
2019-05-02T09:04:58.697Z,99.90
2019-05-02T09:07:31.654Z,99.90
2019-05-02T09:10:00.279Z,99.90
2019-05-02T09:12:31.968Z,99.90
2019-05-02T09:15:02.706Z,99.90
2019-05-02T09:17:38.202Z,99.90
2019-05-02T09:20:14.990Z,99.90
2019-05-02T09:22:36.781Z,99.90
2019-05-02T09:25:07.419Z,99.90
2019-05-02T09:27:37.323Z,99.90
2019-05-02T09:30:08.067Z,99.90
2019-05-02T09:32:37.896Z,99.90
2019-05-02T09:35:07.711Z,99.90
2019-05-02T09:37:37.618Z,99.90
2019-05-02T09:40:14.661Z,99.90
2019-05-02T09:42:39.052Z,99.90
2019-05-02T09:45:12.263Z,99.90
2019-05-02T09:47:56.633Z,99.90
2019-05-02T09:50:20.665Z,99.90
2019-05-02T09:52:52.437Z,99.90
2019-05-02T09:55:22.742Z,99.90
2019-05-02T09:57:52.558Z,99.90
2019-05-02T10:00:49.140Z,99.90
2019-05-02T10:03:19.481Z,99.90
2019-05-02T10:05:52.756Z,99.90
2019-05-02T10:08:23.077Z,99.90
2019-05-02T10:10:53.114Z,99.90
2019-05-02T10:13:23.297Z,99.90
2019-05-02T10:15:53.181Z,99.90
2019-05-02T10:18:28.652Z,99.90
2019-05-02T10:20:54.872Z,99.90
2019-05-02T10:23:24.755Z,99.90
2019-05-02T10:25:54.670Z,99.90
2019-05-02T10:28:24.487Z,99.90
2019-05-02T10:30:56.597Z,99.90
2019-05-02T10:33:28.095Z,99.90
2019-05-02T10:35:57.440Z,99.90
2019-05-02T10:38:27.251Z,99.90
2019-05-02T10:41:01.692Z,99.90
2019-05-02T10:43:28.647Z,99.90
2019-05-02T10:46:03.949Z,99.90
2019-05-02T10:48:35.514Z,99.90
2019-05-02T10:51:25.994Z,99.90
2019-05-02T10:53:56.526Z,99.90
2019-05-02T10:56:26.446Z,99.90
2019-05-02T10:58:56.275Z,99.90
2019-05-02T11:01:27.711Z,99.90
2019-05-02T11:03:59.070Z,99.90
2019-05-02T11:06:32.409Z,99.90
2019-05-02T11:09:02.847Z,99.90
2019-05-02T11:11:33.969Z,99.90
2019-05-02T11:14:23.174Z,99.90
2019-05-02T11:17:01.797Z,99.90
2019-05-02T11:19:52.335Z,99.90
2019-05-02T11:22:22.790Z,99.90
2019-05-02T11:24:52.794Z,99.90
2019-05-02T11:27:22.652Z,99.90
2019-05-02T11:29:54.514Z,99.90
2019-05-02T11:32:24.280Z,99.90
2019-05-02T11:34:54.410Z,99.90
2019-05-02T11:37:24.250Z,99.90
2019-05-02T11:40:00.433Z,99.90
2019-05-02T11:42:27.214Z,99.90
2019-05-02T11:44:57.278Z,99.90
2019-05-02T11:47:27.033Z,99.90
2019-05-02T11:49:56.838Z,99.90
2019-05-02T11:52:27.344Z,99.90
2019-05-02T11:54:58.119Z,99.90
2019-05-02T11:57:30.412Z,99.90
2019-05-02T12:00:04.110Z,99.90
2019-05-02T12:02:58.105Z,99.90
2019-05-02T12:05:41.980Z,99.90
2019-05-02T12:08:12.334Z,99.90
2019-05-02T12:10:42.458Z,99.90
2019-05-02T12:13:15.964Z,99.90
2019-05-02T12:15:44.711Z,99.90
2019-05-02T12:18:14.715Z,99.90
2019-05-02T12:20:44.596Z,99.90
2019-05-02T12:23:14.473Z,99.90
2019-05-02T12:25:44.276Z,99.90
2019-05-02T12:28:14.150Z,99.90
2019-05-02T12:30:43.978Z,99.90
2019-05-02T12:33:14.236Z,99.90
2019-05-02T12:35:43.999Z,99.90
2019-05-02T12:38:13.804Z,99.90
2019-05-02T12:40:43.717Z,99.90
2019-05-02T12:43:13.507Z,99.90
2019-05-02T12:45:45.401Z,99.90
2019-05-02T12:48:15.289Z,99.90
2019-05-02T12:50:45.086Z,99.90
2019-05-02T12:53:14.996Z,99.90
2019-05-02T12:55:44.772Z,99.90
2019-05-02T12:58:14.752Z,99.90
2019-05-02T13:00:44.934Z,99.90
2019-05-02T13:03:32.444Z,99.90
2019-05-02T13:06:03.041Z,99.90
2019-05-02T13:08:34.626Z,99.90
2019-05-02T13:11:23.197Z,99.90
2019-05-02T13:13:53.580Z,99.90
2019-05-02T13:16:23.658Z,99.90
2019-05-02T13:18:57.323Z,99.90
2019-05-02T13:21:40.115Z,99.90
2019-05-02T13:24:16.210Z,99.90
2019-05-02T13:26:43.949Z,99.90
2019-05-02T13:29:14.315Z,99.90
2019-05-02T13:31:56.428Z,99.90
2019-05-02T13:34:55.516Z,99.90
2019-05-02T13:37:22.691Z,99.90
2019-05-02T13:40:11.823Z,99.90
2019-05-02T13:42:41.761Z,99.90
2019-05-02T13:45:23.041Z,99.90
2019-05-02T13:47:52.837Z,99.90
2019-05-02T13:50:29.235Z,99.90
2019-05-02T13:52:59.118Z,99.90
2019-05-02T13:55:33.486Z,99.90
2019-05-02T13:58:06.414Z,99.90
2019-05-02T14:00:44.676Z,99.90
2019-05-02T14:03:14.670Z,99.90
2019-05-02T14:05:50.799Z,99.90
2019-05-02T14:08:32.434Z,99.90
2019-05-02T14:11:18.032Z,99.90
2019-05-02T14:13:47.912Z,99.90
2019-05-02T14:16:17.814Z,99.90
2019-05-02T14:21:12.657Z,99.90
2019-05-02T14:23:43.379Z,99.90
2019-05-02T14:26:13.120Z,99.90
2019-05-02T14:28:43.305Z,99.90
2019-05-02T14:31:13.327Z,99.90
2019-05-02T14:33:44.907Z,99.90
2019-05-02T14:36:14.752Z,99.90
2019-05-02T14:38:44.655Z,99.90
2019-05-02T14:41:29.664Z,99.90
2019-05-02T14:43:59.149Z,99.90
2019-05-02T14:46:34.027Z,99.90
2019-05-02T14:49:02.561Z,99.90
2019-05-02T14:51:33.798Z,99.90
2019-05-02T14:54:08.101Z,99.90
2019-05-02T14:57:03.536Z,99.20
2019-05-02T14:59:33.379Z,99.40
2019-05-02T15:02:07.390Z,99.60
2019-05-02T15:04:44.362Z,99.90
2019-05-02T15:07:12.965Z,99.90
2019-05-02T15:09:42.972Z,99.90
2019-05-02T15:12:15.846Z,99.90
2019-05-02T15:14:44.349Z,99.90
2019-05-02T15:17:14.164Z,99.90
2019-05-02T15:19:44.026Z,99.90
2019-05-02T15:22:13.914Z,99.90
2019-05-02T15:24:43.700Z,99.90
2019-05-02T15:27:17.713Z,99.90
2019-05-02T15:29:44.992Z,99.90
2019-05-02T15:32:52.213Z,99.90
2019-05-02T15:35:57.187Z,99.80
2019-05-02T15:38:28.021Z,99.20
2019-05-02T15:40:59.218Z,99.80
2019-05-02T15:43:27.773Z,99.90
2019-05-02T15:45:57.632Z,98.90
2019-05-02T15:48:27.877Z,98.90
2019-05-02T15:51:00.159Z,98.80
2019-05-02T15:53:34.597Z,99.40
2019-05-02T15:56:04.516Z,98.90
2019-05-02T15:58:34.730Z,98.80
2019-05-02T16:01:36.753Z,99.20
2019-05-02T16:04:05.897Z,99.60
2019-05-02T16:06:36.057Z,98.50
2019-05-02T16:09:07.859Z,98.50
2019-05-02T16:11:37.762Z,98.50
2019-05-02T16:14:07.637Z,99.90
2019-05-02T16:16:41.783Z,99.90
2019-05-02T16:19:14.982Z,99.90
2019-05-02T16:21:52.076Z,99.90
2019-05-02T16:24:23.440Z,99.50
2019-05-02T16:26:56.927Z,99.80
2019-05-02T16:29:28.302Z,98.70
2019-05-02T16:32:05.280Z,98.50
2019-05-02T16:34:41.914Z,99.10
2019-05-02T16:37:16.257Z,99.30
2019-05-02T16:39:49.429Z,99.10
2019-05-02T16:42:15.085Z,99.50
2019-05-02T16:44:44.862Z,99.30
2019-05-02T16:47:14.669Z,99.70
2019-05-02T16:49:47.995Z,99.90
2019-05-02T16:52:16.263Z,99.90
2019-05-02T16:54:46.160Z,99.90
2019-05-02T16:57:17.515Z,99.90
2019-05-02T16:59:47.585Z,99.90
2019-05-02T17:02:17.448Z,99.90
2019-05-02T17:04:49.542Z,99.90
2019-05-02T17:07:27.738Z,99.90
2019-05-02T17:10:17.758Z,99.90
2019-05-02T17:12:55.021Z,99.90
2019-05-02T17:15:36.332Z,99.90
2019-05-02T17:18:12.619Z,99.90
2019-05-02T17:20:38.626Z,99.90
2019-05-02T17:23:08.475Z,99.90
2019-05-02T17:25:38.392Z,99.90
2019-05-02T17:28:10.564Z,99.90
2019-05-02T17:30:41.101Z,99.90
2019-05-02T17:33:12.801Z,99.90
2019-05-02T17:35:49.620Z,99.90
2019-05-02T17:38:14.300Z,99.90
2019-05-02T17:40:44.223Z,99.90
2019-05-02T17:43:13.980Z,99.90
2019-05-02T17:45:43.752Z,99.90
2019-05-02T17:48:16.364Z,99.90
2019-05-02T17:51:12.248Z,99.90
2019-05-02T17:53:49.302Z,99.90
2019-05-02T17:56:20.959Z,99.90
2019-05-02T17:58:53.444Z,99.90
2019-05-02T18:01:21.772Z,99.90
2019-05-02T18:03:52.077Z,99.90
2019-05-02T18:06:32.376Z,99.90
2019-05-02T18:08:55.222Z,99.90
2019-05-02T18:11:29.614Z,99.90
2019-05-02T18:13:56.605Z,99.90
2019-05-02T18:16:26.451Z,99.90
2019-05-02T18:18:56.240Z,99.90
2019-05-02T18:21:28.711Z,99.90
